Time;durP1;ratioP1;P1;durP2;ratioP2;P2;SDS_P1;SDS_P2;PMS_P1;PMS_P2;Temp;Humidity;BMP_temperature;BMP_pressure;BME280_temperature;BME280_humidity;BME280_pressure;Samples;Min_cycle;Max_cycle;Signal;HPM_P1;HPM_P2
2023/03/04 00:00:42;;;;;;;12.43;2.05;;;5.60;99.90;;;;;;4986805;28;20125;-72
2023/03/04 00:03:09;;;;;;;10.93;1.88;;;5.40;99.90;;;;;;4990063;28;20046;-72
2023/03/04 00:05:36;;;;;;;13.48;1.75;;;5.50;99.90;;;;;;4988544;28;20042;-72
2023/03/04 00:08:03;;;;;;;12.30;2.17;;;5.50;99.90;;;;;;4987331;28;20116;-72
2023/03/04 00:10:28;;;;;;;12.52;2.50;;;5.50;99.90;;;;;;5021549;28;20077;-72
2023/03/04 00:12:54;;;;;;;13.25;1.73;;;5.50;99.90;;;;;;4985989;28;20049;-71
2023/03/04 00:15:20;;;;;;;14.27;3.83;;;5.50;99.90;;;;;;4988553;28;20049;-72
2023/03/04 00:17:45;;;;;;;14.50;1.88;;;5.50;99.90;;;;;;4985231;28;20056;-72
2023/03/04 00:20:11;;;;;;;10.50;1.60;;;5.40;99.90;;;;;;5021149;28;20352;-72
2023/03/04 00:22:37;;;;;;;13.32;2.00;;;5.50;99.90;;;;;;5003907;28;20445;-72
2023/03/04 00:25:03;;;;;;;8.95;1.60;;;5.60;99.90;;;;;;4987227;28;20046;-72
2023/03/04 00:27:29;;;;;;;8.90;1.55;;;5.50;99.90;;;;;;5004452;28;20049;-72
2023/03/04 00:29:55;;;;;;;8.43;2.10;;;5.70;99.90;;;;;;5034861;28;20056;-72
2023/03/04 00:32:21;;;;;;;13.85;2.80;;;5.60;99.90;;;;;;5020891;28;20053;-72
2023/03/04 00:34:47;;;;;;;15.65;1.80;;;5.40;99.90;;;;;;5002423;28;20058;-72
2023/03/04 00:37:13;;;;;;;12.63;1.95;;;5.60;99.90;;;;;;5004555;28;20080;-72
2023/03/04 00:39:39;;;;;;;12.93;2.50;;;5.40;99.90;;;;;;5002965;28;20038;-72
2023/03/04 00:42:04;;;;;;;15.10;1.95;;;5.40;99.90;;;;;;5018750;28;20434;-72
2023/03/04 00:44:30;;;;;;;11.95;2.70;;;5.40;99.90;;;;;;5024267;28;20044;-71
2023/03/04 00:46:56;;;;;;;14.65;2.35;;;5.40;99.90;;;;;;5005210;28;20046;-72
2023/03/04 00:49:22;;;;;;;13.77;1.98;;;5.50;99.90;;;;;;5025958;28;20038;-72
2023/03/04 00:51:47;;;;;;;12.90;2.15;;;5.40;99.90;;;;;;5024820;28;20045;-72
2023/03/04 00:54:13;;;;;;;21.60;2.55;;;5.40;99.90;;;;;;5027299;28;20084;-72
2023/03/04 00:56:39;;;;;;;17.60;1.67;;;5.50;99.90;;;;;;5025418;28;20096;-72
2023/03/04 00:59:05;;;;;;;12.70;1.77;;;5.50;99.90;;;;;;5042914;28;20047;-72
2023/03/04 01:01:30;;;;;;;15.60;2.08;;;5.50;99.90;;;;;;5026575;28;20044;-72
2023/03/04 01:03:56;;;;;;;12.98;1.73;;;5.50;99.90;;;;;;5008525;28;20039;-71
2023/03/04 01:06:22;;;;;;;11.68;1.50;;;5.50;99.90;;;;;;5043694;28;20388;-73
2023/03/04 01:08:47;;;;;;;11.48;1.60;;;5.40;99.90;;;;;;5041082;28;20041;-72
2023/03/04 01:11:13;;;;;;;14.73;2.65;;;5.30;99.90;;;;;;5026581;28;20071;-72
2023/03/04 01:13:39;;;;;;;13.55;2.03;;;5.60;99.90;;;;;;5008359;28;20087;-71
2023/03/04 01:16:06;;;;;;;15.95;2.33;;;5.50;99.90;;;;;;5042935;28;20055;-72
2023/03/04 01:18:31;;;;;;;9.90;1.48;;;5.40;99.90;;;;;;5025983;28;20045;-72
2023/03/04 01:20:57;;;;;;;8.20;2.03;;;5.50;99.90;;;;;;5025112;28;20084;-72
2023/03/04 01:23:23;;;;;;;10.13;3.03;;;5.50;99.90;;;;;;5059771;28;20036;-72
2023/03/04 01:25:49;;;;;;;9.82;1.92;;;5.30;99.90;;;;;;5024266;28;20580;-72
2023/03/04 01:28:14;;;;;;;14.02;1.50;;;5.40;99.90;;;;;;5010362;28;20045;-72
2023/03/04 01:30:40;;;;;;;12.00;1.50;;;5.40;99.90;;;;;;5007977;28;20382;-72
2023/03/04 01:33:06;;;;;;;10.40;1.67;;;5.50;99.90;;;;;;5010024;28;20041;-72
2023/03/04 01:35:32;;;;;;;11.75;1.88;;;5.30;99.90;;;;;;5009181;28;20142;-72
2023/03/04 01:37:58;;;;;;;23.40;2.90;;;5.40;99.90;;;;;;5025270;28;20037;-72
2023/03/04 01:40:23;;;;;;;8.57;1.42;;;5.50;99.90;;;;;;5061221;28;20044;-72
2023/03/04 01:42:50;;;;;;;13.35;1.83;;;5.40;99.90;;;;;;5040533;28;20060;-72
2023/03/04 01:45:18;;;;;;;13.07;2.60;;;5.40;99.90;;;;;;5042783;28;20044;-73
2023/03/04 01:47:47;;;;;;;10.60;2.00;;;5.10;99.90;;;;;;5040117;28;20037;-72
2023/03/04 01:50:32;;;;;;;14.57;1.70;;;5.20;99.90;;;;;;5026587;28;20099;-72
2023/03/04 01:52:59;;;;;;;10.70;2.28;;;5.40;99.90;;;;;;5042374;28;20056;-72
2023/03/04 01:55:25;;;;;;;12.43;2.08;;;5.30;99.90;;;;;;5057370;28;20037;-72
2023/03/04 01:57:51;;;;;;;11.77;1.50;;;5.30;99.90;;;;;;5043099;28;20148;-72
2023/03/04 02:00:22;;;;;;;14.27;1.70;;;5.20;99.90;;;;;;5040635;28;20124;-72
2023/03/04 02:02:55;;;;;;;13.02;2.00;;;5.30;99.90;;;;;;5059266;28;20059;-72
2023/03/04 02:05:21;;;;;;;8.02;1.83;;;5.20;99.90;;;;;;5024846;28;20119;-72
2023/03/04 02:07:49;;;;;;;12.45;1.73;;;5.20;99.90;;;;;;5025654;28;20432;-72
2023/03/04 02:10:15;;;;;;;11.43;1.65;;;5.30;99.90;;;;;;5042752;28;20059;-72
2023/03/04 02:12:41;;;;;;;12.10;2.00;;;5.40;99.90;;;;;;5007490;28;20075;-72
2023/03/04 02:15:07;;;;;;;13.05;1.67;;;5.40;99.90;;;;;;5042661;28;20045;-72
2023/03/04 02:17:33;;;;;;;10.57;1.52;;;5.40;99.90;;;;;;5040262;28;20145;-72
2023/03/04 02:19:59;;;;;;;13.00;1.65;;;5.30;99.90;;;;;;5026063;28;20049;-72
2023/03/04 02:22:24;;;;;;;12.02;1.70;;;5.50;99.90;;;;;;5041214;28;20045;-72
2023/03/04 02:25:06;;;;;;;14.32;1.90;;;5.40;99.90;;;;;;5041777;28;20037;-73
2023/03/04 02:27:31;;;;;;;10.98;1.50;;;5.20;99.90;;;;;;5059365;28;20041;-72
2023/03/04 02:29:57;;;;;;;11.90;1.52;;;5.30;99.90;;;;;;5058380;28;20057;-73
2023/03/04 02:32:23;;;;;;;11.82;1.83;;;5.30;99.90;;;;;;5009729;28;20105;-72
2023/03/04 02:34:49;;;;;;;16.92;1.77;;;5.30;99.90;;;;;;5023313;28;20059;-72
2023/03/04 02:37:17;;;;;;;9.95;1.40;;;5.20;99.90;;;;;;5042354;28;20062;-72
2023/03/04 02:39:45;;;;;;;11.00;1.45;;;5.30;99.90;;;;;;5041361;28;20045;-72
2023/03/04 02:42:11;;;;;;;11.43;1.80;;;5.30;99.90;;;;;;5026033;28;20067;-72
2023/03/04 02:44:40;;;;;;;11.48;1.50;;;5.30;99.90;;;;;;5027627;28;20044;-72
2023/03/04 02:47:09;;;;;;;14.98;1.83;;;5.40;99.90;;;;;;5042399;28;20076;-72
2023/03/04 02:49:37;;;;;;;11.80;2.90;;;5.40;99.90;;;;;;5027638;28;20493;-72
2023/03/04 02:52:09;;;;;;;6.97;1.27;;;5.30;99.90;;;;;;5041967;28;20120;-73
2023/03/04 02:54:37;;;;;;;13.13;1.67;;;5.50;99.90;;;;;;5044030;28;20045;-73
2023/03/04 02:57:05;;;;;;;8.35;1.67;;;5.40;99.90;;;;;;5043362;28;20071;-72
2023/03/04 02:59:31;;;;;;;9.15;1.50;;;5.30;99.90;;;;;;5043042;28;20557;-72
2023/03/04 03:01:57;;;;;;;8.85;1.58;;;5.30;99.90;;;;;;5043848;28;20117;-72
2023/03/04 03:04:24;;;;;;;10.27;1.50;;;5.40;99.90;;;;;;5025366;28;20067;-73
2023/03/04 03:06:50;;;;;;;7.80;1.58;;;5.30;99.90;;;;;;5044074;28;20095;-72
2023/03/04 03:09:16;;;;;;;8.57;1.80;;;5.50;99.90;;;;;;5041705;28;20045;-72
2023/03/04 03:11:42;;;;;;;15.30;1.77;;;5.30;99.90;;;;;;5011102;28;20071;-72
2023/03/04 03:14:08;;;;;;;7.35;1.75;;;5.30;99.90;;;;;;5026476;28;20108;-73
2023/03/04 03:16:34;;;;;;;12.65;1.70;;;5.30;99.90;;;;;;5042785;28;20097;-72
2023/03/04 03:19:00;;;;;;;10.55;1.50;;;5.40;99.90;;;;;;5043282;28;20041;-72
2023/03/04 03:21:26;;;;;;;13.57;1.80;;;5.30;99.90;;;;;;5058445;28;20055;-72
2023/03/04 03:23:51;;;;;;;11.88;1.67;;;5.50;99.90;;;;;;5044049;28;20049;-72
2023/03/04 03:26:17;;;;;;;11.18;1.75;;;5.20;99.90;;;;;;5041106;28;20087;-72
2023/03/04 03:28:43;;;;;;;8.25;1.58;;;5.50;99.90;;;;;;5060127;28;20063;-72
2023/03/04 03:31:08;;;;;;;10.55;1.83;;;5.20;99.90;;;;;;5059203;28;20047;-72
2023/03/04 03:33:34;;;;;;;10.73;2.13;;;5.20;99.90;;;;;;5042869;28;20467;-72
2023/03/04 03:36:00;;;;;;;10.70;1.85;;;5.40;99.90;;;;;;5043320;28;20075;-72
2023/03/04 03:38:26;;;;;;;13.27;1.80;;;5.50;99.90;;;;;;5041883;28;20418;-72
2023/03/04 03:40:52;;;;;;;8.57;1.77;;;5.40;99.90;;;;;;5026409;28;20049;-72
2023/03/04 03:43:18;;;;;;;14.30;1.67;;;5.30;99.90;;;;;;5041048;28;20041;-72
2023/03/04 03:45:44;;;;;;;13.05;1.63;;;5.20;99.90;;;;;;5043273;28;20060;-72
2023/03/04 03:48:10;;;;;;;8.20;1.63;;;5.20;99.90;;;;;;5058119;28;20053;-72
2023/03/04 03:50:35;;;;;;;12.63;2.13;;;5.10;99.90;;;;;;5058810;28;20416;-72
2023/03/04 03:53:02;;;;;;;12.20;2.72;;;5.10;99.90;;;;;;5058287;28;20041;-73
2023/03/04 03:55:28;;;;;;;8.50;1.50;;;5.30;99.90;;;;;;5057807;28;20638;-73
2023/03/04 03:57:53;;;;;;;8.85;1.77;;;5.10;99.90;;;;;;5010255;28;20183;-73
2023/03/04 04:00:20;;;;;;;11.32;1.30;;;5.10;99.90;;;;;;5008457;28;20072;-73
2023/03/04 04:02:46;;;;;;;14.02;1.75;;;5.50;99.90;;;;;;5043340;28;20044;-73
2023/03/04 04:05:12;;;;;;;8.60;1.38;;;5.30;99.90;;;;;;5008357;28;20051;-72
2023/03/04 04:07:37;;;;;;;11.75;1.42;;;5.20;99.90;;;;;;5042708;28;20072;-73
2023/03/04 04:10:04;;;;;;;7.85;1.45;;;5.50;99.90;;;;;;5009208;28;20109;-73
2023/03/04 04:12:31;;;;;;;8.65;1.30;;;5.40;99.90;;;;;;5041326;28;20037;-73
2023/03/04 04:14:56;;;;;;;13.55;1.58;;;5.50;99.90;;;;;;5042793;28;20049;-73
2023/03/04 04:17:22;;;;;;;11.77;1.67;;;5.20;99.90;;;;;;5032741;28;20054;-72
2023/03/04 04:19:48;;;;;;;12.55;1.30;;;5.30;99.90;;;;;;5023169;28;20092;-72
2023/03/04 04:22:17;;;;;;;10.75;1.48;;;5.60;99.90;;;;;;4988800;28;20090;-73
2023/03/04 04:24:42;;;;;;;12.63;1.50;;;5.60;99.90;;;;;;5006250;28;20041;-73
2023/03/04 04:27:09;;;;;;;12.07;1.40;;;5.50;99.90;;;;;;5021587;28;20092;-73
2023/03/04 04:29:35;;;;;;;7.35;1.35;;;5.50;99.90;;;;;;5021734;28;20120;-73
2023/03/04 04:32:00;;;;;;;12.65;2.28;;;5.50;99.90;;;;;;4990000;28;20516;-73
2023/03/04 04:34:26;;;;;;;9.52;1.15;;;5.30;99.90;;;;;;5020866;28;20050;-73
2023/03/04 04:36:52;;;;;;;10.38;1.50;;;5.60;99.90;;;;;;5006409;28;20105;-73
2023/03/04 04:39:18;;;;;;;9.75;2.40;;;5.60;99.90;;;;;;5039009;28;20442;-73
2023/03/04 04:41:44;;;;;;;6.45;1.10;;;5.70;99.90;;;;;;5022817;28;20088;-73
2023/03/04 04:44:11;;;;;;;12.23;1.50;;;5.30;99.90;;;;;;5021315;28;20045;-73
2023/03/04 04:46:38;;;;;;;13.05;1.95;;;5.60;99.90;;;;;;5004843;28;20052;-73
2023/03/04 04:49:04;;;;;;;8.52;1.40;;;5.80;99.90;;;;;;5022284;28;20056;-73
2023/03/04 04:51:30;;;;;;;10.63;1.25;;;5.60;99.90;;;;;;5020447;28;20397;-74
2023/03/04 04:53:57;;;;;;;12.13;1.80;;;5.30;99.90;;;;;;5024766;28;20042;-73
2023/03/04 04:56:25;;;;;;;8.05;1.25;;;5.50;99.90;;;;;;5020381;28;20079;-73
2023/03/04 04:58:52;;;;;;;7.43;2.03;;;5.60;99.90;;;;;;5021993;28;20084;-73
2023/03/04 05:01:18;;;;;;;7.13;1.30;;;5.50;99.90;;;;;;5021445;28;20053;-73
2023/03/04 05:03:44;;;;;;;8.55;1.20;;;5.70;99.90;;;;;;5020820;28;20044;-73
2023/03/04 05:06:11;;;;;;;7.00;1.33;;;5.50;99.90;;;;;;5005422;28;20053;-73
2023/03/04 05:08:37;;;;;;;5.25;1.00;;;5.80;99.90;;;;;;5019971;28;20124;-73
2023/03/04 05:11:05;;;;;;;9.23;1.30;;;5.70;99.90;;;;;;5019209;28;20056;-72
2023/03/04 05:13:31;;;;;;;7.30;1.17;;;5.60;99.90;;;;;;5019386;28;20055;-73
2023/03/04 05:15:57;;;;;;;8.73;2.58;;;5.20;99.90;;;;;;5039708;28;20081;-73
2023/03/04 05:18:24;;;;;;;8.23;1.60;;;5.60;99.90;;;;;;4988427;28;20112;-73
2023/03/04 05:21:01;;;;;;;8.32;1.70;;;5.70;99.90;;;;;;5020997;28;20053;-73
2023/03/04 05:23:28;;;;;;;9.32;1.65;;;5.50;99.90;;;;;;5021680;28;20045;-73
2023/03/04 05:25:54;;;;;;;7.03;1.65;;;5.60;99.90;;;;;;5036620;28;20041;-73
2023/03/04 05:28:20;;;;;;;9.32;2.92;;;5.70;99.90;;;;;;5022223;28;20108;-73
2023/03/04 05:30:46;;;;;;;9.82;1.67;;;5.20;99.90;;;;;;4987599;28;20539;-72
2023/03/04 05:33:14;;;;;;;11.35;1.63;;;5.60;99.90;;;;;;5021456;28;20068;-73
2023/03/04 05:35:42;;;;;;;11.95;1.80;;;5.90;99.90;;;;;;5037507;28;20077;-73
2023/03/04 05:38:10;;;;;;;9.73;1.30;;;5.90;99.90;;;;;;5020365;28;20041;-73
2023/03/04 05:40:36;;;;;;;10.00;1.60;;;5.80;99.90;;;;;;5021306;28;20061;-73
2023/03/04 05:43:02;;;;;;;10.00;1.58;;;5.80;99.90;;;;;;5036451;28;20052;-73
2023/03/04 05:45:28;;;;;;;10.45;1.60;;;5.90;99.90;;;;;;5021882;28;20041;-73
2023/03/04 05:47:54;;;;;;;13.35;1.70;;;5.90;99.90;;;;;;5019442;28;20049;-73
2023/03/04 05:50:21;;;;;;;8.77;1.65;;;5.10;99.90;;;;;;5031163;28;20087;-73
2023/03/04 05:52:46;;;;;;;9.95;1.65;;;5.30;99.90;;;;;;5040766;28;20056;-73
2023/03/04 05:55:13;;;;;;;16.13;3.95;;;5.80;99.90;;;;;;5006872;28;20581;-73
2023/03/04 05:57:38;;;;;;;14.25;1.67;;;5.90;99.90;;;;;;5041411;28;20048;-73
2023/03/04 06:00:08;;;;;;;12.45;2.10;;;5.80;99.90;;;;;;5057303;28;20354;-73
2023/03/04 06:02:34;;;;;;;11.23;1.75;;;5.30;99.90;;;;;;5041331;28;20048;-73
2023/03/04 06:05:00;;;;;;;9.30;1.27;;;5.80;99.90;;;;;;5039226;28;20040;-72
2023/03/04 06:07:26;;;;;;;5.28;1.00;;;5.80;99.90;;;;;;5057460;28;20105;-73
2023/03/04 06:09:52;;;;;;;7.75;1.20;;;5.00;99.90;;;;;;5023989;28;20056;-73
2023/03/04 06:12:17;;;;;;;6.32;1.10;;;5.40;99.90;;;;;;5039942;28;20047;-73
2023/03/04 06:14:43;;;;;;;7.95;1.20;;;5.10;99.90;;;;;;5024609;28;20033;-73
2023/03/04 06:17:09;;;;;;;7.68;1.40;;;5.20;99.90;;;;;;5008872;28;20040;-72
2023/03/04 06:19:36;;;;;;;7.30;1.48;;;5.00;99.90;;;;;;5045115;28;20083;-72
2023/03/04 06:22:03;;;;;;;9.50;1.58;;;5.70;99.90;;;;;;5042790;28;20045;-73
2023/03/04 06:24:29;;;;;;;12.95;1.80;;;5.40;99.90;;;;;;5028471;28;20061;-73
2023/03/04 06:26:55;;;;;;;10.10;1.33;;;5.60;99.90;;;;;;5027297;28;20583;-72
2023/03/04 06:29:20;;;;;;;12.57;1.58;;;4.90;99.90;;;;;;5043961;28;20055;-73
2023/03/04 06:31:46;;;;;;;6.78;1.10;;;5.10;99.90;;;;;;5044690;28;20044;-73
2023/03/04 06:34:12;;;;;;;9.13;1.55;;;5.60;99.90;;;;;;5060577;28;20464;-73
2023/03/04 06:36:37;;;;;;;7.68;1.10;;;5.60;99.90;;;;;;5062675;28;20040;-72
2023/03/04 06:39:04;;;;;;;7.40;1.85;;;5.10;99.90;;;;;;5042665;28;20041;-73
2023/03/04 06:41:31;;;;;;;7.28;1.15;;;5.40;99.90;;;;;;5028186;28;20497;-73
2023/03/04 06:43:56;;;;;;;10.13;1.25;;;5.60;99.90;;;;;;5043003;28;20047;-73
2023/03/04 06:46:23;;;;;;;7.05;0.95;;;5.10;99.90;;;;;;5043483;28;20053;-72
2023/03/04 06:48:48;;;;;;;10.55;1.45;;;5.60;99.90;;;;;;5023329;28;20516;-73
2023/03/04 06:51:14;;;;;;;9.32;2.20;;;5.20;99.90;;;;;;5020548;28;20041;-72
2023/03/04 06:53:40;;;;;;;11.93;1.25;;;5.70;99.90;;;;;;5057301;28;20098;-72
2023/03/04 06:56:08;;;;;;;8.98;1.52;;;5.90;99.90;;;;;;5038722;28;20052;-72
2023/03/04 06:58:33;;;;;;;9.88;1.48;;;5.60;99.90;;;;;;5040816;28;20045;-73
2023/03/04 07:01:19;;;;;;;11.35;1.70;;;5.70;99.90;;;;;;5038691;28;20051;-72
2023/03/04 07:03:45;;;;;;;11.38;1.60;;;6.00;99.90;;;;;;5039018;28;20041;-72
2023/03/04 07:06:13;;;;;;;12.40;1.60;;;6.00;99.90;;;;;;5057123;28;20132;-72
2023/03/04 07:08:39;;;;;;;8.35;1.20;;;5.60;99.90;;;;;;5056680;28;20037;-72
2023/03/04 07:11:05;;;;;;;8.10;1.50;;;5.70;99.90;;;;;;5040477;28;20045;-72
2023/03/04 07:13:31;;;;;;;10.57;1.55;;;6.10;99.90;;;;;;5021482;28;20099;-73
2023/03/04 07:15:59;;;;;;;11.00;1.42;;;5.90;99.90;;;;;;5057862;28;20052;-73
2023/03/04 07:18:24;;;;;;;9.82;1.48;;;5.40;99.90;;;;;;5039163;28;20071;-72
2023/03/04 07:20:53;;;;;;;12.70;1.58;;;6.20;99.90;;;;;;5039247;28;20045;-72
2023/03/04 07:23:19;;;;;;;9.40;1.20;;;6.20;99.90;;;;;;5023908;28;20079;-72
2023/03/04 07:25:45;;;;;;;10.82;1.30;;;5.50;99.90;;;;;;5038608;28;20304;-72
2023/03/04 07:28:11;;;;;;;8.27;1.60;;;5.60;99.90;;;;;;5056365;28;20069;-72
2023/03/04 07:30:36;;;;;;;11.43;1.73;;;5.00;99.90;;;;;;5038452;28;20121;-72
2023/03/04 07:33:02;;;;;;;19.20;2.38;;;5.30;99.90;;;;;;5052698;28;20098;-73
2023/03/04 07:35:28;;;;;;;16.15;3.08;;;5.10;99.90;;;;;;5049657;28;20049;-73
2023/03/04 07:37:54;;;;;;;13.90;2.42;;;6.10;99.90;;;;;;5055573;28;20045;-73
2023/03/04 07:40:20;;;;;;;15.90;2.45;;;5.20;99.90;;;;;;5056137;28;20045;-73
2023/03/04 07:42:50;;;;;;;14.90;1.98;;;5.90;99.90;;;;;;5037357;28;20056;-73
2023/03/04 07:45:16;;;;;;;17.33;2.38;;;5.40;99.90;;;;;;5023418;28;20053;-72
2023/03/04 07:47:41;;;;;;;10.00;1.63;;;6.30;99.90;;;;;;5036628;28;20499;-72
2023/03/04 07:50:09;;;;;;;16.45;2.35;;;5.50;99.90;;;;;;5057474;28;20037;-72
2023/03/04 07:52:42;;;;;;;18.27;3.40;;;5.70;99.90;;;;;;5002487;28;20056;-72
2023/03/04 07:55:09;;;;;;;25.38;3.45;;;5.80;99.90;;;;;;5018052;28;20105;-73
2023/03/04 07:57:38;;;;;;;18.92;2.65;;;6.10;99.90;;;;;;5002872;28;20091;-73
2023/03/04 08:00:04;;;;;;;21.08;3.78;;;5.70;99.90;;;;;;5000916;28;20475;-72
2023/03/04 08:02:30;;;;;;;18.23;4.00;;;5.90;99.90;;;;;;5003068;28;20106;-73
2023/03/04 08:04:56;;;;;;;17.60;2.53;;;6.10;99.90;;;;;;5001478;28;20041;-73
2023/03/04 08:07:22;;;;;;;18.17;2.67;;;6.20;99.90;;;;;;5019416;28;20038;-72
2023/03/04 08:09:48;;;;;;;14.70;2.20;;;5.70;99.90;;;;;;5020599;28;20456;-72
2023/03/04 08:12:14;;;;;;;13.93;2.70;;;6.20;99.90;;;;;;5019053;28;20033;-72
2023/03/04 08:14:40;;;;;;;22.90;2.33;;;6.10;99.90;;;;;;5035986;28;20046;-72
2023/03/04 08:17:06;;;;;;;11.95;2.55;;;5.80;99.90;;;;;;5053763;28;20133;-72
2023/03/04 08:19:31;;;;;;;17.27;3.15;;;6.10;99.90;;;;;;5018479;28;20041;-72
2023/03/04 08:21:57;;;;;;;14.43;2.55;;;6.00;99.90;;;;;;5037278;28;20037;-71
2023/03/04 08:24:23;;;;;;;16.17;2.00;;;5.70;99.90;;;;;;5035791;28;20044;-72
2023/03/04 08:26:49;;;;;;;16.92;3.08;;;6.10;99.90;;;;;;5036756;28;20060;-72
2023/03/04 08:29:19;;;;;;;16.65;2.63;;;5.60;99.90;;;;;;5037024;28;20122;-72
2023/03/04 08:31:46;;;;;;;14.88;2.38;;;6.20;99.90;;;;;;5022703;28;20055;-73
2023/03/04 08:34:13;;;;;;;19.08;5.55;;;5.80;99.90;;;;;;5003977;28;20059;-73
2023/03/04 08:36:41;;;;;;;11.23;2.30;;;6.10;99.90;;;;;;5022103;28;20049;-72
2023/03/04 08:39:07;;;;;;;12.50;2.20;;;6.20;99.90;;;;;;5019289;28;20320;-72
2023/03/04 08:41:33;;;;;;;18.38;2.45;;;5.80;99.90;;;;;;5038698;28;20056;-72
2023/03/04 08:44:00;;;;;;;20.95;2.65;;;6.20;99.90;;;;;;5004704;28;20045;-72
2023/03/04 08:46:25;;;;;;;17.20;2.60;;;6.20;99.90;;;;;;5004798;28;20041;-72
2023/03/04 08:48:51;;;;;;;21.40;4.05;;;6.30;99.90;;;;;;5004879;28;20146;-71
2023/03/04 08:51:17;;;;;;;16.17;2.50;;;6.00;99.90;;;;;;4986416;28;20096;-73
2023/03/04 08:53:43;;;;;;;12.93;2.75;;;6.20;99.90;;;;;;5039017;28;20073;-72
2023/03/04 08:56:10;;;;;;;16.80;2.70;;;6.10;99.90;;;;;;5039565;28;20048;-73
2023/03/04 08:58:36;;;;;;;16.75;2.60;;;6.10;99.90;;;;;;5057281;28;20101;-72
2023/03/04 09:01:03;;;;;;;15.57;2.78;;;6.20;99.90;;;;;;5003995;28;20167;-71
2023/03/04 09:03:29;;;;;;;19.75;2.42;;;6.20;99.90;;;;;;5037080;28;20056;-72
2023/03/04 09:05:55;;;;;;;15.55;2.25;;;6.30;99.90;;;;;;5054336;28;20389;-72
2023/03/04 09:08:21;;;;;;;20.63;2.67;;;6.30;99.90;;;;;;5036071;28;20060;-72
2023/03/04 09:10:50;;;;;;;14.18;2.42;;;6.40;99.90;;;;;;5005138;28;20060;-71
2023/03/04 09:13:16;;;;;;;13.07;2.35;;;6.30;99.90;;;;;;5035208;28;20045;-71
2023/03/04 09:15:47;;;;;;;17.10;1.98;;;6.40;99.90;;;;;;5008270;28;20037;-72
2023/03/04 09:18:14;;;;;;;12.95;2.55;;;6.50;99.90;;;;;;5045512;28;20129;-70
2023/03/04 09:20:39;;;;;;;8.77;1.80;;;6.50;99.90;;;;;;5036299;28;20033;-72
2023/03/04 09:23:05;;;;;;;10.20;2.25;;;6.40;99.90;;;;;;5028787;28;20068;-71
2023/03/04 09:25:32;;;;;;;11.40;2.10;;;6.50;99.90;;;;;;5026310;28;20040;-71
2023/03/04 09:27:57;;;;;;;13.73;1.92;;;6.40;99.90;;;;;;5028911;28;20044;-71
2023/03/04 09:30:23;;;;;;;11.40;2.35;;;6.50;99.90;;;;;;5036138;28;20046;-72
2023/03/04 09:32:49;;;;;;;12.70;2.03;;;6.50;99.90;;;;;;5029519;28;20067;-72
2023/03/04 09:35:14;;;;;;;9.68;1.55;;;6.50;99.90;;;;;;5009029;28;20053;-72
2023/03/04 09:37:40;;;;;;;12.50;2.05;;;6.60;99.90;;;;;;5033568;28;20037;-72
2023/03/04 09:40:08;;;;;;;10.07;2.38;;;6.50;99.90;;;;;;5036914;28;20057;-71
2023/03/04 09:42:46;;;;;;;14.38;1.63;;;6.40;99.90;;;;;;5051982;28;20061;-72
2023/03/04 09:45:18;;;;;;;10.77;1.63;;;6.40;99.90;;;;;;5037586;28;20049;-72
2023/03/04 09:47:45;;;;;;;;;;;6.30;99.90;;;;;;5052289;28;20064;-72
2023/03/04 09:50:11;;;;;;;5.63;1.40;;;6.50;99.90;;;;;;5017817;28;19925;-72
2023/03/04 09:53:05;;;;;;;7.90;1.30;;;6.50;99.90;;;;;;5052968;28;20045;-72
2023/03/04 09:55:39;;;;;;;7.50;1.20;;;6.40;99.90;;;;;;5019699;28;20154;-71
2023/03/04 09:58:23;;;;;;;6.47;1.20;;;6.50;99.90;;;;;;5021971;28;20060;-72
2023/03/04 10:01:01;;;;;;;7.15;1.13;;;6.60;99.90;;;;;;5020038;28;20060;-71
2023/03/04 10:03:49;;;;;;;8.13;1.60;;;6.70;99.90;;;;;;5037414;28;20051;-72
2023/03/04 10:06:20;;;;;;;8.60;1.23;;;6.70;99.90;;;;;;5021326;28;20046;-72
2023/03/04 10:09:11;;;;;;;15.00;2.03;;;6.90;99.90;;;;;;5035568;28;20042;-72
2023/03/04 10:11:45;;;;;;;11.50;1.87;;;6.80;99.90;;;;;;5037475;28;20103;-72
2023/03/04 10:14:56;;;;;;;10.38;1.77;;;6.70;99.90;;;;;;5021050;28;20215;-72
2023/03/04 10:17:41;;;;;;;12.00;1.83;;;6.60;99.90;;;;;;4976907;28;20054;-72
2023/03/04 10:20:31;;;;;;;14.27;2.00;;;6.50;99.90;;;;;;4963530;28;20074;-72
2023/03/04 10:23:07;;;;;;;12.13;2.10;;;6.70;99.90;;;;;;5022242;28;20057;-71
2023/03/04 10:25:34;;;;;;;11.05;1.80;;;6.70;99.90;;;;;;5036434;28;20105;-72
2023/03/04 10:28:11;;;;;;;16.50;1.90;;;6.70;99.90;;;;;;5038179;28;20045;-72
2023/03/04 10:30:42;;;;;;;14.52;2.85;;;6.70;99.90;;;;;;5037192;28;20045;-72
2023/03/04 10:33:17;;;;;;;10.10;2.10;;;6.70;99.90;;;;;;5039529;28;20052;-73
2023/03/04 10:36:05;;;;;;;21.98;2.80;;;6.90;99.90;;;;;;5039433;28;20316;-72
2023/03/04 10:38:36;;;;;;;14.60;3.70;;;7.00;99.90;;;;;;4989362;28;20119;-73
2023/03/04 10:41:19;;;;;;;12.93;2.08;;;6.90;99.90;;;;;;5041774;28;20088;-75
2023/03/04 10:44:02;;;;;;;15.32;2.38;;;6.90;99.90;;;;;;5053836;28;20108;-73
2023/03/04 10:46:29;;;;;;;9.82;2.85;;;7.00;99.90;;;;;;5039196;28;20049;-73
2023/03/04 10:48:56;;;;;;;13.18;2.28;;;6.90;99.90;;;;;;5023937;28;20036;-72
2023/03/04 10:51:27;;;;;;;13.60;2.08;;;6.80;99.90;;;;;;5015994;28;20080;-72
2023/03/04 10:54:04;;;;;;;16.38;2.35;;;6.90;99.90;;;;;;5040886;28;20084;-71
2023/03/04 10:56:33;;;;;;;12.38;2.13;;;6.80;99.90;;;;;;5022018;28;20217;-72
2023/03/04 10:59:31;;;;;;;15.48;2.60;;;6.60;99.90;;;;;;5034006;28;20049;-72
2023/03/04 11:01:58;;;;;;;10.18;2.00;;;6.90;99.90;;;;;;5049265;28;20478;-72
2023/03/04 11:04:26;;;;;;;12.02;1.92;;;7.00;99.90;;;;;;5038027;28;20052;-73
2023/03/04 11:06:53;;;;;;;10.43;3.13;;;7.10;99.90;;;;;;5055492;28;20399;-72
2023/03/04 11:09:27;;;;;;;10.35;1.75;;;7.00;99.90;;;;;;5036416;28;20047;-71
2023/03/04 11:12:01;;;;;;;11.85;1.95;;;7.10;99.90;;;;;;5017399;28;20453;-72
2023/03/04 11:14:33;;;;;;;12.88;2.10;;;7.10;99.90;;;;;;5022797;28;20045;-72
2023/03/04 11:17:02;;;;;;;11.30;1.88;;;7.20;99.90;;;;;;5037905;28;20118;-72
2023/03/04 11:19:37;;;;;;;11.88;2.85;;;7.20;99.90;;;;;;5039943;28;20049;-71
2023/03/04 11:22:04;;;;;;;12.88;2.55;;;7.00;99.90;;;;;;5056336;28;20045;-71
2023/03/04 11:24:33;;;;;;;14.57;2.38;;;6.90;99.90;;;;;;5039441;28;20049;-71
2023/03/04 11:27:05;;;;;;;12.70;2.05;;;6.80;99.90;;;;;;5057380;28;20092;-71
2023/03/04 11:29:37;;;;;;;;;;;6.90;99.90;;;;;;5057067;28;20120;-71
2023/03/04 11:32:23;;;;;;;11.30;1.77;;;7.00;99.90;;;;;;5039604;28;19978;-71
2023/03/04 11:35:19;;;;;;;19.92;2.28;;;7.30;99.90;;;;;;5057178;28;20063;-71
2023/03/04 11:38:21;;;;;;;17.13;2.85;;;7.20;99.90;;;;;;5035003;28;20041;-72
2023/03/04 11:41:00;;;;;;;12.38;2.03;;;7.00;99.90;;;;;;5053493;28;20056;-71
2023/03/04 11:43:46;;;;;;;18.58;2.95;;;7.00;99.90;;;;;;5053813;28;20499;-71
2023/03/04 11:46:35;;;;;;;15.45;2.75;;;6.80;99.90;;;;;;5029317;28;20140;-72
2023/03/04 11:49:36;;;;;;;19.15;2.20;;;7.00;99.90;;;;;;5015593;28;20065;-71
2023/03/04 11:52:13;;;;;;;17.60;2.30;;;6.80;99.90;;;;;;5028148;28;20068;-71
2023/03/04 11:55:01;;;;;;;12.35;2.00;;;6.90;99.90;;;;;;5030318;28;20073;-72
2023/03/04 11:57:39;;;;;;;15.02;2.38;;;6.90;99.90;;;;;;5015026;28;20049;-72
2023/03/04 12:00:29;;;;;;;14.40;1.83;;;7.00;99.90;;;;;;5047506;28;20049;-71
2023/03/04 12:03:20;;;;;;;12.88;1.75;;;7.00;99.90;;;;;;5030214;28;20072;-73
2023/03/04 12:06:02;;;;;;;14.05;2.70;;;7.00;99.90;;;;;;5023904;28;20061;-72
2023/03/04 12:08:30;;;;;;;15.25;2.15;;;7.00;99.90;;;;;;5043353;28;20051;-72
2023/03/04 12:11:03;;;;;;;16.52;2.10;;;6.90;99.90;;;;;;5029566;28;20059;-72
2023/03/04 12:13:54;;;;;;;16.50;2.50;;;6.80;99.90;;;;;;5009678;28;20141;-72
2023/03/04 12:16:56;;;;;;;18.50;2.63;;;7.00;99.90;;;;;;5028476;28;20040;-72
2023/03/04 12:19:56;;;;;;;14.23;2.25;;;7.00;99.90;;;;;;5029645;28;20079;-72
2023/03/04 12:22:43;;;;;;;11.70;1.85;;;6.60;99.90;;;;;;5053739;28;20618;-71
2023/03/04 12:25:34;;;;;;;9.25;1.70;;;6.40;99.90;;;;;;5007760;28;20053;-72
2023/03/04 12:28:16;;;;;;;11.23;2.03;;;6.30;99.90;;;;;;5045777;28;20041;-71
2023/03/04 12:30:51;;;;;;;;;;;6.30;99.90;;;;;;5034849;28;20101;-71
2023/03/04 12:33:23;;;;;;;13.95;2.45;;;6.50;99.90;;;;;;5029265;28;19924;-72
2023/03/04 12:35:56;;;;;;;15.07;2.90;;;6.70;99.90;;;;;;5027569;28;20550;-72
2023/03/04 12:38:34;;;;;;;12.27;1.90;;;7.00;99.90;;;;;;5032498;28;20061;-72
2023/03/04 12:41:33;;;;;;;10.23;2.15;;;6.80;99.90;;;;;;5011922;28;20056;-72
2023/03/04 12:44:20;;;;;;;12.50;2.13;;;7.10;99.90;;;;;;5009716;28;20052;-71
2023/03/04 12:47:11;;;;;;;11.65;2.70;;;7.10;99.90;;;;;;5035411;28;20052;-72
2023/03/04 12:49:46;;;;;;;15.65;2.10;;;7.30;99.90;;;;;;5015518;28;20033;-72
2023/03/04 12:52:30;;;;;;;16.17;2.00;;;7.10;99.90;;;;;;5044863;28;20041;-72
2023/03/04 12:55:01;;;;;;;18.75;2.65;;;7.00;99.90;;;;;;5033026;28;20053;-72
2023/03/04 12:57:31;;;;;;;12.98;2.00;;;7.10;99.90;;;;;;5034616;28;20044;-72
2023/03/04 13:00:12;;;;;;;12.38;1.83;;;6.90;99.90;;;;;;5036070;28;20071;-72
2023/03/04 13:02:58;;;;;;;10.27;1.80;;;6.80;99.90;;;;;;5038194;28;20051;-72